createdAt,value
2022-10-19T00:01:35.868Z,0.68
2022-10-19T00:04:37.319Z,0.60
2022-10-19T00:10:41.420Z,0.60
2022-10-19T00:13:43.215Z,0.70
2022-10-19T00:16:46.032Z,0.68
2022-10-19T00:19:47.625Z,0.70
2022-10-19T00:22:49.905Z,0.65
2022-10-19T00:25:57.193Z,0.65
2022-10-19T00:29:00.479Z,0.80
2022-10-19T00:32:02.144Z,0.80
2022-10-19T00:35:03.904Z,0.65
2022-10-19T00:38:05.902Z,0.68
2022-10-19T00:41:08.353Z,0.65
2022-10-19T00:44:40.864Z,0.52
2022-10-19T00:47:44.201Z,0.70
2022-10-19T00:50:47.258Z,0.52
2022-10-19T00:53:48.747Z,0.70
2022-10-19T00:56:54.309Z,0.75
2022-10-19T00:59:56.860Z,0.40
2022-10-19T01:02:58.363Z,0.60
2022-10-19T01:06:00.245Z,0.65
2022-10-19T01:09:01.755Z,0.52
2022-10-19T01:12:11.326Z,0.70
2022-10-19T01:15:21.816Z,0.80
2022-10-19T01:18:33.008Z,0.70
2022-10-19T01:21:41.760Z,0.50
2022-10-19T01:25:03.891Z,0.63
2022-10-19T01:28:24.375Z,0.73
2022-10-19T01:31:32.263Z,0.60
2022-10-19T01:34:39.898Z,0.70
2022-10-19T01:37:48.259Z,0.60
2022-10-19T01:40:56.327Z,0.60
2022-10-19T01:44:03.619Z,0.70
2022-10-19T01:47:10.291Z,0.57
2022-10-19T01:50:17.424Z,0.60
2022-10-19T01:53:20.952Z,0.77
2022-10-19T01:56:26.713Z,0.68
2022-10-19T01:59:29.685Z,0.60
2022-10-19T02:02:32.053Z,0.57
2022-10-19T02:05:35.968Z,0.70
2022-10-19T02:08:43.478Z,0.60
2022-10-19T02:11:49.046Z,0.65
2022-10-19T02:14:57.691Z,0.60
2022-10-19T02:18:00.713Z,0.60
2022-10-19T02:21:04.413Z,0.40
2022-10-19T02:24:06.185Z,0.40
2022-10-19T02:27:08.527Z,0.50
2022-10-19T02:30:12.198Z,0.47
2022-10-19T02:33:14.478Z,0.57
2022-10-19T02:36:16.910Z,0.40
2022-10-19T02:39:18.941Z,0.50
2022-10-19T02:42:27.383Z,0.50
2022-10-19T02:45:31.905Z,0.45
2022-10-19T02:48:35.835Z,0.50
2022-10-19T02:51:39.476Z,0.50
2022-10-19T02:54:43.489Z,0.55
2022-10-19T02:57:44.890Z,0.50
2022-10-19T03:03:48.255Z,0.40
2022-10-19T03:06:49.644Z,0.40
2022-10-19T03:12:52.365Z,0.43
2022-10-19T03:15:54.038Z,0.40
2022-10-19T03:18:56.100Z,0.38
2022-10-19T03:21:57.669Z,0.32
2022-10-19T03:24:59.310Z,0.40
2022-10-19T03:28:00.757Z,0.60
2022-10-19T03:34:04.127Z,0.30
2022-10-19T03:37:06.026Z,0.52
2022-10-19T03:40:08.197Z,0.50
2022-10-19T03:43:09.677Z,0.40
2022-10-19T03:46:11.528Z,0.47
2022-10-19T03:49:13.540Z,0.50
2022-10-19T03:52:15.042Z,0.40
2022-10-19T03:55:17.394Z,0.40
2022-10-19T03:58:18.844Z,0.55
2022-10-19T04:01:23.521Z,0.43
2022-10-19T04:04:25.647Z,0.40
2022-10-19T04:07:27.133Z,0.40
2022-10-19T04:10:30.821Z,0.47
2022-10-19T04:13:33.141Z,0.30
2022-10-19T04:16:34.901Z,0.40
2022-10-19T04:19:36.936Z,0.50
2022-10-19T04:22:38.315Z,0.50
2022-10-19T04:28:41.368Z,0.40
2022-10-19T04:31:43.042Z,0.40
2022-10-19T04:34:44.960Z,0.50
2022-10-19T04:37:46.380Z,0.40
2022-10-19T04:43:53.924Z,0.40
2022-10-19T04:46:55.693Z,0.30
2022-10-19T04:49:57.666Z,0.50
2022-10-19T04:52:59.062Z,0.40
2022-10-19T04:59:04.830Z,0.45
2022-10-19T05:05:08.694Z,0.40
2022-10-19T05:08:10.920Z,0.40
2022-10-19T05:11:14.266Z,0.40
2022-10-19T05:14:15.848Z,0.57
2022-10-19T05:17:17.506Z,0.40
2022-10-19T05:20:19.498Z,0.50
2022-10-19T05:23:20.942Z,0.40
2022-10-19T05:26:24.148Z,0.30
2022-10-19T05:29:25.612Z,0.40
2022-10-19T05:32:27.674Z,0.50
2022-10-19T05:35:29.635Z,0.40
2022-10-19T05:38:31.035Z,0.40
2022-10-19T05:44:33.912Z,0.40
2022-10-19T05:47:35.803Z,0.50
2022-10-19T05:50:38.661Z,0.40
2022-10-19T05:53:40.990Z,0.40
2022-10-19T05:56:46.324Z,0.40
2022-10-19T05:59:47.736Z,0.50
2022-10-19T06:05:52.108Z,0.50
2022-10-19T06:08:55.508Z,0.50
2022-10-19T06:11:56.955Z,0.50
2022-10-19T06:14:59.421Z,0.52
2022-10-19T06:24:05.744Z,0.68
2022-10-19T06:27:07.296Z,0.40
2022-10-19T06:30:13.811Z,0.63
2022-10-19T06:33:15.588Z,0.50
2022-10-19T06:36:19.778Z,0.85
2022-10-19T06:39:21.222Z,0.70
2022-10-19T06:45:24.183Z,0.60
2022-10-19T06:48:26.069Z,0.57
2022-10-19T06:51:30.131Z,0.38
2022-10-19T06:54:31.562Z,0.60
2022-10-19T07:00:35.007Z,0.70
2022-10-19T07:03:36.951Z,1.60
2022-10-19T07:06:41.403Z,0.77
2022-10-19T07:09:43.685Z,0.50
2022-10-19T07:12:45.414Z,1.00
2022-10-19T07:15:47.436Z,0.60
2022-10-19T07:18:51.678Z,0.88
2022-10-19T07:21:53.131Z,0.90
2022-10-19T07:24:56.220Z,1.02
2022-10-19T07:27:57.891Z,0.60
2022-10-19T07:31:04.762Z,0.75
2022-10-19T07:34:06.218Z,0.60
2022-10-19T07:40:13.336Z,0.60
2022-10-19T07:43:14.757Z,0.57
2022-10-19T07:46:18.679Z,0.60
2022-10-19T07:49:21.777Z,0.60
2022-10-19T07:52:24.581Z,0.60
2022-10-19T07:55:27.743Z,1.08
2022-10-19T07:58:29.363Z,0.60
2022-10-19T08:01:33.284Z,1.02
2022-10-19T08:05:10.533Z,0.52
2022-10-19T08:08:01.571Z,0.40
2022-10-19T08:11:09.127Z,0.60
2022-10-19T08:14:11.390Z,0.50
2022-10-19T08:17:16.614Z,0.40
2022-10-19T08:20:20.243Z,0.80
2022-10-19T08:23:22.464Z,0.40
2022-10-19T08:26:27.446Z,0.52
2022-10-19T08:29:31.392Z,0.40
2022-10-19T08:32:34.575Z,0.40
2022-10-19T08:35:37.390Z,0.50
2022-10-19T08:38:42.810Z,0.30
2022-10-19T08:41:57.066Z,0.38
2022-10-19T08:45:20.725Z,0.40
2022-10-19T08:48:27.884Z,0.57
2022-10-19T08:51:37.257Z,0.35
2022-10-19T08:54:47.692Z,0.70
2022-10-19T08:57:53.598Z,0.47
2022-10-19T09:00:59.817Z,0.43
2022-10-19T09:04:05.130Z,0.50
2022-10-19T09:07:24.333Z,0.45
2022-10-19T09:10:28.828Z,0.50
2022-10-19T09:13:41.694Z,0.60
2022-10-19T09:17:02.572Z,0.70
2022-10-19T09:20:16.987Z,0.50
2022-10-19T09:23:25.338Z,0.55
2022-10-19T09:26:32.232Z,0.70
2022-10-19T09:29:39.740Z,0.85
2022-10-19T09:32:42.424Z,0.50
2022-10-19T09:35:46.033Z,0.88
2022-10-19T09:38:48.385Z,0.57
2022-10-19T09:41:53.555Z,0.70
2022-10-19T09:45:00.659Z,0.60
2022-10-19T09:48:07.192Z,0.70
2022-10-19T09:51:15.892Z,0.70
2022-10-19T09:54:30.700Z,0.70
2022-10-19T09:57:32.864Z,0.60
2022-10-19T10:00:38.114Z,0.70
2022-10-19T10:03:39.676Z,0.50
2022-10-19T10:06:43.576Z,0.73
2022-10-19T10:09:45.790Z,0.70
2022-10-19T10:12:48.070Z,0.77
2022-10-19T10:15:57.071Z,0.90
2022-10-19T10:19:02.175Z,0.60
2022-10-19T10:22:05.170Z,0.63
2022-10-19T10:25:16.326Z,0.80
2022-10-19T10:28:19.918Z,0.70
2022-10-19T10:31:25.163Z,0.80
2022-10-19T10:34:46.029Z,1.08
2022-10-19T10:37:52.608Z,1.00
2022-10-19T10:40:59.384Z,0.43
2022-10-19T10:44:06.001Z,0.73
2022-10-19T10:47:14.255Z,0.63
2022-10-19T10:50:21.327Z,0.63
2022-10-19T10:53:38.986Z,1.20
2022-10-19T10:56:43.036Z,1.50
2022-10-19T10:59:53.713Z,1.58
2022-10-19T11:03:03.861Z,1.40
2022-10-19T11:06:07.641Z,1.40
2022-10-19T11:09:16.852Z,1.20
2022-10-19T11:12:34.338Z,1.80
2022-10-19T11:15:43.504Z,1.40
2022-10-19T11:18:49.725Z,1.75
2022-10-19T11:22:01.098Z,1.30
2022-10-19T11:28:24.560Z,1.60
2022-10-19T11:31:37.146Z,1.50
2022-10-19T11:34:53.369Z,1.48
2022-10-19T11:38:19.452Z,1.40
2022-10-19T11:41:30.115Z,1.70
2022-10-19T11:44:46.097Z,2.22
2022-10-19T11:48:06.577Z,1.50
2022-10-19T11:51:21.785Z,1.58
2022-10-19T11:54:37.700Z,1.83
2022-10-19T11:57:45.443Z,1.92
2022-10-19T12:00:54.085Z,1.60
2022-10-19T12:04:13.025Z,1.70
2022-10-19T12:07:35.356Z,1.58
2022-10-19T12:10:44.908Z,1.50
2022-10-19T12:13:50.699Z,1.50
2022-10-19T12:16:56.059Z,1.83
2022-10-19T12:20:01.151Z,1.80
2022-10-19T12:23:21.182Z,1.40
2022-10-19T12:26:24.276Z,1.10
2022-10-19T12:29:28.275Z,1.38
2022-10-19T12:32:36.347Z,0.60
2022-10-19T12:35:52.618Z,0.70
2022-10-19T12:39:03.949Z,0.77
2022-10-19T12:42:18.785Z,0.90
2022-10-19T12:45:30.601Z,1.13
2022-10-19T12:48:32.084Z,1.05
2022-10-19T12:51:45.015Z,1.25
2022-10-19T12:54:50.006Z,1.60
2022-10-19T12:58:03.635Z,1.88
2022-10-19T13:01:06.746Z,1.65
2022-10-19T13:04:11.889Z,1.23
2022-10-19T13:07:18.030Z,1.70
2022-10-19T13:10:22.902Z,1.30
2022-10-19T13:13:50.993Z,1.17
2022-10-19T13:16:57.422Z,1.38
2022-10-19T13:20:28.707Z,1.40
2022-10-19T13:23:41.337Z,1.30
2022-10-19T13:26:44.349Z,1.30
2022-10-19T13:29:45.833Z,1.40
2022-10-19T13:32:47.321Z,1.30
2022-10-19T13:36:06.559Z,1.50
2022-10-19T13:39:14.314Z,1.42
2022-10-19T13:42:25.115Z,1.55
2022-10-19T13:45:26.759Z,1.98
2022-10-19T13:48:38.047Z,1.70
2022-10-19T13:51:53.689Z,1.77
2022-10-19T13:55:22.520Z,1.67
2022-10-19T13:58:43.192Z,1.60
2022-10-19T14:01:57.351Z,1.33
2022-10-19T14:05:15.225Z,1.60
2022-10-19T14:08:41.150Z,1.50
2022-10-19T14:11:45.527Z,1.48
2022-10-19T14:14:47.639Z,1.67
2022-10-19T14:17:49.509Z,1.58
2022-10-19T14:20:57.251Z,1.65
2022-10-19T14:23:58.834Z,1.80
2022-10-19T14:27:02.894Z,1.70
2022-10-19T14:30:06.356Z,1.88
2022-10-19T14:33:10.195Z,2.30
2022-10-19T14:36:16.594Z,2.22
2022-10-19T14:39:33.605Z,2.17
2022-10-19T14:42:40.131Z,2.13
2022-10-19T14:45:42.442Z,2.33
2022-10-19T14:48:45.942Z,1.98
2022-10-19T14:51:51.363Z,1.70
2022-10-19T14:54:55.157Z,1.77
2022-10-19T14:57:57.075Z,1.98
2022-10-19T15:00:59.251Z,1.52
2022-10-19T15:04:00.819Z,1.80
2022-10-19T15:07:13.170Z,1.58
2022-10-19T15:10:20.091Z,1.40
2022-10-19T15:13:26.166Z,1.15
2022-10-19T15:16:42.123Z,1.00
2022-10-19T15:19:43.695Z,1.10
2022-10-19T15:22:45.117Z,1.42
2022-10-19T15:25:46.581Z,1.45
2022-10-19T15:28:48.539Z,1.00
2022-10-19T15:31:55.670Z,1.05
2022-10-19T15:34:57.551Z,1.10
2022-10-19T15:38:01.961Z,1.23
2022-10-19T15:41:04.582Z,0.98
2022-10-19T15:44:21.929Z,1.00
2022-10-19T15:47:24.525Z,0.90
2022-10-19T15:50:38.827Z,1.10
2022-10-19T15:53:41.889Z,0.85
2022-10-19T15:56:45.493Z,0.88
2022-10-19T15:59:48.031Z,0.90
2022-10-19T16:02:51.225Z,0.95
2022-10-19T16:05:53.001Z,0.90
2022-10-19T16:08:55.117Z,0.82
2022-10-19T16:11:57.005Z,0.90
2022-10-19T16:14:58.460Z,1.00
2022-10-19T16:18:00.639Z,0.80
2022-10-19T16:21:03.465Z,0.80
2022-10-19T16:24:05.325Z,1.00
2022-10-19T16:27:07.993Z,1.10
2022-10-19T16:30:10.874Z,1.05
2022-10-19T16:33:12.895Z,1.35
2022-10-19T16:36:14.709Z,1.25
2022-10-19T16:39:16.327Z,1.33
2022-10-19T16:42:17.939Z,1.45
2022-10-19T16:45:19.429Z,1.30
2022-10-19T16:48:24.067Z,1.45
2022-10-19T16:51:29.132Z,1.70
2022-10-19T16:54:31.904Z,1.10
2022-10-19T16:57:33.524Z,1.30
2022-10-19T17:00:35.390Z,1.20
2022-10-19T17:03:37.553Z,1.00
2022-10-19T17:06:39.849Z,0.88
2022-10-19T17:09:42.815Z,1.08
2022-10-19T17:12:45.081Z,1.00
2022-10-19T17:15:46.534Z,1.13
2022-10-19T17:18:49.393Z,0.82
2022-10-19T17:21:53.795Z,0.80
2022-10-19T17:24:55.886Z,0.90
2022-10-19T17:27:57.307Z,0.93
2022-10-19T17:31:03.309Z,1.02
2022-10-19T17:34:06.041Z,0.90
2022-10-19T17:37:07.435Z,0.80
2022-10-19T17:40:09.653Z,0.77
2022-10-19T17:43:11.374Z,0.90
2022-10-19T17:46:15.436Z,1.00
2022-10-19T17:49:18.016Z,1.00
2022-10-19T17:52:19.447Z,0.75
2022-10-19T17:58:27.820Z,0.90
2022-10-19T18:01:30.230Z,1.00
2022-10-19T18:04:32.300Z,0.90
2022-10-19T18:07:33.989Z,0.98
2022-10-19T18:10:36.445Z,0.77
2022-10-19T18:13:39.010Z,0.88
2022-10-19T18:16:43.918Z,1.02
2022-10-19T18:19:46.279Z,0.80
2022-10-19T18:22:47.689Z,1.20
2022-10-19T18:25:54.337Z,0.93
2022-10-19T18:28:57.202Z,0.90
2022-10-19T18:31:58.647Z,0.90
2022-10-19T18:35:00.854Z,0.90
2022-10-19T18:38:02.757Z,0.98
2022-10-19T18:41:06.315Z,0.88
2022-10-19T18:44:10.898Z,0.90
2022-10-19T18:47:12.322Z,0.93
2022-10-19T18:50:17.614Z,1.05
2022-10-19T18:53:19.113Z,1.25
2022-10-19T18:56:22.273Z,0.90
2022-10-19T18:59:23.938Z,1.05
2022-10-19T19:02:34.797Z,0.95
2022-10-19T19:05:44.530Z,1.00
2022-10-19T19:08:46.300Z,1.10
2022-10-19T19:11:47.829Z,1.40
2022-10-19T19:14:49.488Z,1.27
2022-10-19T19:17:54.173Z,1.83
2022-10-19T19:20:56.254Z,1.77
2022-10-19T19:24:00.164Z,2.30
2022-10-19T19:27:01.636Z,2.30
2022-10-19T19:30:04.028Z,2.40
2022-10-19T19:33:05.488Z,2.00
2022-10-19T19:36:09.110Z,2.38
2022-10-19T19:39:14.091Z,2.00
2022-10-19T19:42:15.812Z,2.15
2022-10-19T19:45:17.464Z,2.33
2022-10-19T19:48:18.872Z,2.50
2022-10-19T19:51:21.587Z,2.05
2022-10-19T19:54:23.148Z,1.80
2022-10-19T19:57:24.592Z,1.80
2022-10-19T20:00:26.154Z,1.30
2022-10-19T20:03:27.532Z,1.33
2022-10-19T20:06:30.094Z,1.60
2022-10-19T20:09:31.614Z,1.10
2022-10-19T20:12:33.011Z,1.25
2022-10-19T20:15:37.658Z,1.25
2022-10-19T20:18:39.282Z,1.20
2022-10-19T20:21:41.503Z,1.52
2022-10-19T20:24:44.011Z,1.30
2022-10-19T20:27:45.412Z,1.30
2022-10-19T20:30:46.836Z,1.10
2022-10-19T20:33:48.573Z,1.30
2022-10-19T20:36:50.634Z,1.30
2022-10-19T20:39:52.057Z,1.08
2022-10-19T20:42:53.463Z,1.10
2022-10-19T20:46:05.068Z,0.90
2022-10-19T20:49:06.675Z,1.00
2022-10-19T20:52:08.841Z,0.98
2022-10-19T20:55:11.262Z,0.70
2022-10-19T20:58:12.697Z,0.85
2022-10-19T21:04:16.388Z,1.10
2022-10-19T21:07:18.347Z,1.10
2022-10-19T21:10:19.760Z,1.30
2022-10-19T21:13:21.180Z,1.05
2022-10-19T21:16:26.763Z,0.95
2022-10-19T21:19:30.074Z,0.90
2022-10-19T21:22:37.998Z,0.88
2022-10-19T21:25:39.445Z,1.15
2022-10-19T21:28:46.034Z,1.02
2022-10-19T21:31:51.267Z,1.20
2022-10-19T21:34:52.741Z,0.90
2022-10-19T21:37:54.680Z,1.27
2022-10-19T21:40:57.863Z,1.00
2022-10-19T21:43:59.403Z,0.88
2022-10-19T21:47:01.055Z,0.90
2022-10-19T21:50:02.985Z,1.10
2022-10-19T21:53:08.447Z,1.17
2022-10-19T21:56:09.943Z,1.27
2022-10-19T22:02:13.177Z,1.67
2022-10-19T22:05:14.852Z,1.50
2022-10-19T22:08:16.893Z,2.05
2022-10-19T22:11:18.634Z,1.98
2022-10-19T22:14:20.037Z,2.03
2022-10-19T22:17:21.727Z,1.67
2022-10-19T22:20:23.109Z,1.90
2022-10-19T22:26:31.873Z,1.70
2022-10-19T22:29:33.451Z,1.48
2022-10-19T22:32:35.204Z,1.75
2022-10-19T22:35:39.994Z,1.40
2022-10-19T22:38:42.035Z,1.60
2022-10-19T22:41:43.487Z,1.55
2022-10-19T22:44:44.865Z,1.40
2022-10-19T22:50:52.791Z,1.48
2022-10-19T22:53:54.822Z,1.27
2022-10-19T22:56:56.248Z,1.50
2022-10-19T22:59:57.634Z,1.50
2022-10-19T23:06:03.530Z,1.42
2022-10-19T23:09:05.536Z,1.40
2022-10-19T23:12:06.960Z,1.70
2022-10-19T23:18:10.903Z,1.38
2022-10-19T23:21:13.454Z,1.05
2022-10-19T23:24:15.474Z,1.08
2022-10-19T23:27:16.935Z,1.20
2022-10-19T23:30:18.448Z,1.10
2022-10-19T23:33:19.889Z,1.42
2022-10-19T23:36:24.221Z,1.10
2022-10-19T23:39:26.270Z,1.45
2022-10-19T23:42:27.780Z,1.40
2022-10-19T23:45:29.283Z,1.30
2022-10-19T23:48:31.125Z,1.45
2022-10-19T23:51:32.813Z,1.00
2022-10-19T23:54:34.836Z,0.90
2022-10-19T23:57:36.536Z,1.15
